createdAt,value
2018-01-26T00:01:37.742Z,20.13
2018-01-26T00:04:06.270Z,21.77
2018-01-26T00:06:34.607Z,20.80
2018-01-26T00:09:03.058Z,22.00
2018-01-26T00:11:31.527Z,22.00
2018-01-26T00:13:59.823Z,20.57
2018-01-26T00:16:28.145Z,20.07
2018-01-26T00:18:56.467Z,21.93
2018-01-26T00:21:24.952Z,21.93
2018-01-26T00:23:54.463Z,20.90
2018-01-26T00:26:22.899Z,20.07
2018-01-26T00:28:51.171Z,18.17
2018-01-26T00:31:19.510Z,19.10
2018-01-26T00:33:48.755Z,21.90
2018-01-26T00:36:17.107Z,19.60
2018-01-26T00:38:45.783Z,19.77
2018-01-26T00:41:14.316Z,19.77
2018-01-26T00:43:42.759Z,19.43
2018-01-26T00:46:11.112Z,18.17
2018-01-26T00:48:39.727Z,18.63
2018-01-26T00:51:08.026Z,21.00
2018-01-26T00:54:57.419Z,19.10
2018-01-26T00:57:25.779Z,20.30
2018-01-26T00:59:54.074Z,20.93
2018-01-26T01:02:22.402Z,22.30
2018-01-26T01:04:50.734Z,23.70
2018-01-26T01:07:19.062Z,22.30
2018-01-26T01:09:47.664Z,22.63
2018-01-26T01:12:15.990Z,23.90
2018-01-26T01:14:44.272Z,23.83
2018-01-26T01:17:12.592Z,23.47
2018-01-26T01:20:40.093Z,21.73
2018-01-26T01:23:08.408Z,23.40
2018-01-26T01:25:36.719Z,24.10
2018-01-26T01:28:05.055Z,23.03
2018-01-26T01:30:33.486Z,23.43
2018-01-26T01:33:01.775Z,26.33
2018-01-26T01:35:30.259Z,28.70
2018-01-26T01:37:58.713Z,28.10
2018-01-26T01:40:27.087Z,27.50
2018-01-26T01:42:55.362Z,28.03
2018-01-26T01:45:23.675Z,27.10
2018-01-26T01:47:51.985Z,26.70
2018-01-26T01:50:20.306Z,27.37
2018-01-26T01:52:48.608Z,27.27
2018-01-26T01:55:16.994Z,26.57
2018-01-26T01:57:45.319Z,26.37
2018-01-26T02:00:13.625Z,27.60
2018-01-26T02:02:41.955Z,28.80
2018-01-26T02:05:10.272Z,27.70
2018-01-26T02:07:38.607Z,29.57
2018-01-26T02:10:06.946Z,29.27
2018-01-26T02:12:35.280Z,28.10
2018-01-26T02:15:03.711Z,28.10
2018-01-26T02:17:32.010Z,26.37
2018-01-26T02:20:00.251Z,26.37
2018-01-26T02:22:28.630Z,25.30
2018-01-26T02:27:53.586Z,24.37
2018-01-26T02:30:23.017Z,24.10
2018-01-26T02:32:52.191Z,24.37
2018-01-26T02:35:21.904Z,26.30
2018-01-26T02:37:50.563Z,28.73
2018-01-26T02:40:19.163Z,26.20
2018-01-26T02:42:47.825Z,26.00
2018-01-26T02:45:16.804Z,26.30
2018-01-26T02:47:45.503Z,25.30
2018-01-26T02:50:14.412Z,22.67
2018-01-26T02:52:42.938Z,23.90
2018-01-26T02:55:11.675Z,24.33
2018-01-26T02:57:40.407Z,24.20
2018-01-26T03:00:09.400Z,23.70
2018-01-26T03:02:38.097Z,23.40
2018-01-26T03:05:06.803Z,22.70
2018-01-26T03:07:35.516Z,23.83
2018-01-26T03:10:04.202Z,22.40
2018-01-26T03:12:32.860Z,22.73
2018-01-26T03:15:01.668Z,21.77
2018-01-26T03:17:30.421Z,25.10
2018-01-26T03:19:59.889Z,24.57
2018-01-26T03:22:28.853Z,24.40
2018-01-26T03:24:57.888Z,23.77
2018-01-26T03:27:28.005Z,22.57
2018-01-26T03:29:56.527Z,23.80
2018-01-26T03:32:25.260Z,23.40
2018-01-26T03:34:54.067Z,23.67
2018-01-26T03:37:22.733Z,22.60
2018-01-26T03:39:51.642Z,22.70
2018-01-26T03:42:20.172Z,21.07
2018-01-26T03:44:48.829Z,22.87
2018-01-26T03:47:17.733Z,22.10
2018-01-26T03:49:46.277Z,21.53
2018-01-26T03:52:15.840Z,21.73
2018-01-26T03:54:44.568Z,23.77
2018-01-26T03:57:13.129Z,23.07
2018-01-26T03:59:41.743Z,23.40
2018-01-26T04:02:10.469Z,22.20
2018-01-26T04:04:39.271Z,24.90
2018-01-26T04:07:08.052Z,21.30
2018-01-26T04:09:36.685Z,22.70
2018-01-26T04:12:05.374Z,24.00
2018-01-26T04:14:34.118Z,24.47
2018-01-26T04:17:02.829Z,27.00
2018-01-26T04:19:31.386Z,26.53
2018-01-26T04:21:59.959Z,27.43
2018-01-26T04:24:28.816Z,28.43
2018-01-26T04:27:02.046Z,27.40
2018-01-26T04:29:30.620Z,27.87
2018-01-26T04:31:59.177Z,29.33
2018-01-26T04:34:27.777Z,30.87
2018-01-26T04:36:56.417Z,30.20
2018-01-26T04:39:24.972Z,30.13
2018-01-26T04:41:53.825Z,29.73
2018-01-26T04:44:22.604Z,29.80
2018-01-26T04:46:51.309Z,32.20
2018-01-26T04:49:20.321Z,31.80
2018-01-26T04:51:48.987Z,31.63
2018-01-26T04:54:17.567Z,30.00
2018-01-26T04:56:46.202Z,31.33
2018-01-26T04:59:14.864Z,31.70
2018-01-26T05:04:39.059Z,30.90
2018-01-26T05:07:07.507Z,30.10
2018-01-26T05:09:35.972Z,30.80
2018-01-26T05:12:04.400Z,31.40
2018-01-26T05:14:32.761Z,30.03
2018-01-26T05:17:01.145Z,32.17
2018-01-26T05:19:29.413Z,30.70
2018-01-26T05:21:57.728Z,32.03
2018-01-26T05:24:26.192Z,30.83
2018-01-26T05:26:55.921Z,33.93
2018-01-26T05:29:27.931Z,33.13
2018-01-26T05:31:57.565Z,31.20
2018-01-26T05:34:27.544Z,32.30
2018-01-26T05:36:58.174Z,34.60
2018-01-26T05:39:26.951Z,33.27
2018-01-26T05:41:55.454Z,34.30
2018-01-26T05:44:23.929Z,33.90
2018-01-26T05:46:52.260Z,33.53
2018-01-26T05:49:22.118Z,34.63
2018-01-26T05:51:50.464Z,34.60
2018-01-26T05:54:18.727Z,33.30
2018-01-26T05:56:47.174Z,33.73
2018-01-26T05:59:15.620Z,34.10
2018-01-26T06:01:44.128Z,33.37
2018-01-26T06:04:12.534Z,35.43
2018-01-26T06:06:40.920Z,33.33
2018-01-26T06:09:09.232Z,36.30
2018-01-26T06:11:37.565Z,35.17
2018-01-26T06:14:05.921Z,35.23
2018-01-26T06:16:34.231Z,34.80
2018-01-26T06:19:02.764Z,36.47
2018-01-26T06:21:31.067Z,37.47
2018-01-26T06:23:59.387Z,38.97
2018-01-26T06:26:27.838Z,39.07
2018-01-26T06:28:56.707Z,38.30
2018-01-26T06:31:25.136Z,40.30
2018-01-26T06:33:53.535Z,40.47
2018-01-26T06:36:21.963Z,40.23
2018-01-26T06:38:50.555Z,43.87
2018-01-26T06:41:18.859Z,41.60
2018-01-26T06:43:47.179Z,41.40
2018-01-26T06:46:22.100Z,44.53
2018-01-26T06:48:50.554Z,43.50
2018-01-26T06:51:18.902Z,46.60
2018-01-26T06:53:47.315Z,48.00
2018-01-26T06:56:15.647Z,46.00
2018-01-26T06:58:43.931Z,46.70
2018-01-26T07:01:12.246Z,44.63
2018-01-26T07:03:40.595Z,45.17
2018-01-26T07:06:08.920Z,46.90
2018-01-26T07:08:37.398Z,46.90
2018-01-26T07:11:05.899Z,47.40
2018-01-26T07:13:34.188Z,43.70
2018-01-26T07:16:05.400Z,44.40
2018-01-26T07:18:33.820Z,43.90
2018-01-26T07:21:02.267Z,46.27
2018-01-26T07:23:30.563Z,43.60
2018-01-26T07:25:58.904Z,46.00
2018-01-26T07:28:27.173Z,41.97
2018-01-26T07:30:55.497Z,46.17
2018-01-26T07:33:23.836Z,44.63
2018-01-26T07:35:52.155Z,43.67
2018-01-26T07:38:20.443Z,42.37
2018-01-26T07:40:48.762Z,44.50
2018-01-26T07:43:17.138Z,46.40
2018-01-26T07:45:45.666Z,41.47
2018-01-26T07:48:14.915Z,42.67
2018-01-26T07:50:43.223Z,47.17
2018-01-26T07:53:11.531Z,45.33
2018-01-26T07:55:39.843Z,43.53
2018-01-26T07:58:08.154Z,43.83
2018-01-26T08:00:36.456Z,44.20
2018-01-26T08:03:05.343Z,45.07
2018-01-26T08:05:33.798Z,46.93
2018-01-26T08:08:02.162Z,44.70
2018-01-26T08:10:30.502Z,46.00
2018-01-26T08:12:58.806Z,44.40
2018-01-26T08:15:27.215Z,45.00
2018-01-26T08:17:55.551Z,44.00
2018-01-26T08:20:24.124Z,44.47
2018-01-26T08:22:52.417Z,45.17
2018-01-26T08:25:20.743Z,43.17
2018-01-26T08:27:49.066Z,44.63
2018-01-26T08:30:17.403Z,44.97
2018-01-26T08:32:45.726Z,43.73
2018-01-26T08:35:14.254Z,44.87
2018-01-26T08:37:42.513Z,47.47
2018-01-26T08:40:11.011Z,46.00
2018-01-26T08:42:39.286Z,47.30
2018-01-26T08:45:07.604Z,47.40
2018-01-26T08:47:35.903Z,46.57
2018-01-26T08:50:04.335Z,45.40
2018-01-26T08:52:33.468Z,47.20
2018-01-26T08:55:02.118Z,45.90
2018-01-26T08:57:30.492Z,47.33
2018-01-26T08:59:58.754Z,48.27
2018-01-26T09:02:27.163Z,47.20
2018-01-26T09:04:55.466Z,46.97
2018-01-26T09:07:23.810Z,45.30
2018-01-26T09:09:52.115Z,44.87
2018-01-26T09:12:20.496Z,44.37
2018-01-26T09:14:48.891Z,45.40
2018-01-26T09:17:17.291Z,43.60
2018-01-26T09:19:45.783Z,47.83
2018-01-26T09:22:14.159Z,47.20
2018-01-26T09:24:42.499Z,47.03
2018-01-26T09:27:10.891Z,48.10
2018-01-26T09:29:39.183Z,47.43
2018-01-26T09:32:07.759Z,47.30
2018-01-26T09:34:36.052Z,47.87
2018-01-26T09:37:04.396Z,48.73
2018-01-26T09:39:32.773Z,46.07
2018-01-26T09:43:04.153Z,48.30
2018-01-26T09:45:32.491Z,47.70
2018-01-26T09:48:00.993Z,48.10
2018-01-26T09:50:29.327Z,48.47
2018-01-26T09:52:57.606Z,48.50
2018-01-26T09:55:26.099Z,47.90
2018-01-26T09:57:54.374Z,50.27
2018-01-26T10:00:22.914Z,49.40
2018-01-26T10:02:51.415Z,50.37
2018-01-26T10:05:19.765Z,50.80
2018-01-26T10:07:48.067Z,48.10
2018-01-26T10:10:16.424Z,49.90
2018-01-26T10:12:44.702Z,49.80
2018-01-26T10:15:13.035Z,50.83
2018-01-26T10:17:41.436Z,53.70
2018-01-26T10:20:09.926Z,49.50
2018-01-26T10:22:38.404Z,49.17
2018-01-26T10:25:07.744Z,52.10
2018-01-26T10:27:36.318Z,52.50
2018-01-26T10:30:04.675Z,52.40
2018-01-26T10:32:33.043Z,52.60
2018-01-26T10:35:01.300Z,53.20
2018-01-26T10:37:29.625Z,52.30
2018-01-26T10:39:57.929Z,54.07
2018-01-26T10:42:26.315Z,52.87
2018-01-26T10:44:54.634Z,54.33
2018-01-26T10:47:22.976Z,52.10
2018-01-26T10:49:51.685Z,50.77
2018-01-26T10:52:21.068Z,51.00
2018-01-26T10:54:50.306Z,51.10
2018-01-26T10:57:18.611Z,52.67
2018-01-26T10:59:47.043Z,51.60
2018-01-26T11:02:15.345Z,51.70
2018-01-26T11:04:43.623Z,51.33
2018-01-26T11:07:11.946Z,51.80
2018-01-26T11:09:46.892Z,50.63
2018-01-26T11:12:15.403Z,51.80
2018-01-26T11:14:43.849Z,52.67
2018-01-26T11:17:12.359Z,51.73
2018-01-26T11:19:40.811Z,51.97
2018-01-26T11:22:09.141Z,50.47
2018-01-26T11:24:37.526Z,49.13
2018-01-26T11:27:05.927Z,49.00
2018-01-26T11:29:34.374Z,51.37
2018-01-26T11:32:02.702Z,52.53
2018-01-26T11:34:30.985Z,50.17
2018-01-26T11:36:59.310Z,50.77
2018-01-26T11:39:27.650Z,45.80
2018-01-26T11:41:56.147Z,46.60
2018-01-26T11:44:24.456Z,46.40
2018-01-26T11:46:52.823Z,45.67
2018-01-26T11:49:21.187Z,41.87
2018-01-26T11:51:49.542Z,41.17
2018-01-26T11:54:17.924Z,40.60
2018-01-26T11:56:46.774Z,38.60
2018-01-26T11:59:15.214Z,40.90
2018-01-26T12:01:43.572Z,36.97
2018-01-26T12:04:11.858Z,35.77
2018-01-26T12:06:40.343Z,35.87
2018-01-26T12:09:08.670Z,34.30
2018-01-26T12:11:36.979Z,34.90
2018-01-26T12:14:05.282Z,30.60
2018-01-26T12:16:33.650Z,31.40
2018-01-26T12:19:02.098Z,30.77
2018-01-26T12:21:30.464Z,28.00
2018-01-26T12:23:58.738Z,26.63
2018-01-26T12:26:27.081Z,26.20
2018-01-26T12:28:55.607Z,27.50
2018-01-26T12:31:23.991Z,24.37
2018-01-26T12:33:52.289Z,22.93
2018-01-26T12:36:20.590Z,21.73
2018-01-26T12:38:48.883Z,22.00
2018-01-26T12:41:17.195Z,19.03
2018-01-26T12:43:45.586Z,18.60
2018-01-26T12:46:13.908Z,17.40
2018-01-26T12:48:42.214Z,16.70
2018-01-26T12:51:10.551Z,15.87
2018-01-26T12:53:38.840Z,14.63
2018-01-26T12:56:07.156Z,16.40
2018-01-26T12:58:35.658Z,14.63
2018-01-26T13:01:04.050Z,15.33
2018-01-26T13:03:32.397Z,12.57
2018-01-26T13:06:00.723Z,13.20
2018-01-26T13:08:29.147Z,11.00
2018-01-26T13:10:57.457Z,11.10
2018-01-26T13:13:25.732Z,10.20
2018-01-26T13:15:54.234Z,9.30
2018-01-26T13:18:22.539Z,9.27
2018-01-26T13:20:50.851Z,7.80
2018-01-26T13:23:19.236Z,8.23
